ADDS METAR Data INFO
IDs: Format: Raw Decoded Include TAF

Data at: 0845 UTC 27 Jun 2017

KJAS 270835Z AUTO 00000KT 10SM 23/23 A3005 RMK AO2 T02320228
KJAS 270815Z AUTO 00000KT 10SM 23/23 A3006 RMK AO2 T02310227
KJAS 270755Z AUTO 00000KT 10SM 23/23 A3006 RMK AO2 T02310227
KJAS 270735Z AUTO 00000KT 10SM 23/23 A3006 RMK AO2 T02300226
KJAS 270715Z AUTO 00000KT 10SM 23/23 A3006 RMK AO2 T02300226
KJAS 270655Z AUTO 00000KT 10SM 23/23 A3006 RMK AO2 T02300226
KJAS 270635Z AUTO 00000KT 10SM 23/23 A3006 RMK AO2 T02300227
KJAS 270615Z AUTO 00000KT 10SM 23/23 A3006 RMK AO2 T02300227
KJAS 270555Z AUTO 00000KT 7SM 23/23 A3006 RMK AO2 T02300227
KJAS 270535Z AUTO 00000KT 7SM 23/23 A3007 RMK AO2 T02320230
KJAS 270515Z AUTO 00000KT 7SM 23/23 A3007 RMK AO2 T02340230
KJAS 270455Z AUTO 00000KT 10SM 24/23 A3006 RMK AO2 T02360231
KJAS 270435Z AUTO 00000KT 10SM 24/23 A3007 RMK AO2 T02370231
KJAS 270415Z AUTO 00000KT 10SM 24/23 A3007 RMK AO2 T02400232
KJAS 270355Z AUTO 00000KT 10SM 24/23 A3006 RMK AO2 T02410234
KJAS 270335Z AUTO 00000KT 10SM 24/24 A3006 RMK AO2 T02410235
KJAS 270315Z AUTO 00000KT 10SM 24/23 A3006 RMK AO2 T02410234
KJAS 270255Z AUTO 00000KT 10SM 24/23 A3005 RMK AO2 T02430234
KJAS 270235Z AUTO 00000KT 10SM 25/24 A3005 RMK AO2 T02460236
KJAS 270215Z AUTO 00000KT 10SM 25/24 A3006 RMK AO2 T02470235
KJAS 270155Z AUTO 00000KT 10SM 25/24 A3005 RMK AO2 T02480235
KJAS 270135Z AUTO 00000KT 10SM 25/24 A3005 RMK AO2 T02540235
KJAS 270115Z AUTO 00000KT 10SM 26/23 A3005 RMK AO2 T02570232
KJAS 270055Z AUTO 00000KT 10SM 26/23 A3005 RMK AO2 T02600230
KJAS 270035Z AUTO 00000KT 10SM 26/23 A3005 RMK AO2 T02610229
KJAS 270015Z AUTO 00000KT 10SM 27/23 A3005 RMK AO2 T02650228
KJAS 262355Z AUTO 23003KT 10SM 27/23 A3005 RMK AO2 T02680225
KJAS 262335Z AUTO 21004KT 10SM 27/23 A3005 RMK AO2 T02700225
KJAS 262315Z AUTO 16004KT 10SM 27/23 A3005 RMK AO2 T02700225
KJAS 262255Z AUTO 16006KT 10SM 27/23 A3005 RMK AO2 T02740227
KJAS 262235Z AUTO 15010G14KT 10SM 30/23 A3004 RMK AO2 T02970234
KJAS 262215Z AUTO 05003KT 10SM 30/23 A3003 RMK AO2 T03010233
KJAS 262155Z AUTO 08003KT 10SM SCT037 SCT085 BKN100 30/23 A3004 RMK AO2 T03000234
KJAS 262135Z AUTO 00000KT 10SM SCT037 SCT085 30/24 A3005 RMK AO2 T03000236
KJAS 262115Z AUTO 01003KT 10SM SCT080 SCT100 29/24 A3005 RMK AO2 T02930242
KJAS 262055Z AUTO 33003KT 10SM SCT080 29/25 A3006 RMK AO2 P0001 T02880246
KJAS 262035Z AUTO 35003KT 10SM -DZ SCT031 SCT038 SCT055 28/24 A3006 RMK AO2 P0001 T02810244
KJAS 262015Z AUTO 00000KT 10SM RA 27/24 A3007 RMK AO2 T02670240
KJAS 261955Z AUTO 30005KT 3SM RA 26/24 A3008 RMK AO2 P0009 T02600237
KJAS 261935Z AUTO 31010KT 1 1/2SM -RA 28/23 A3009 RMK AO2 VIS 1/4V5 P0001 T02800233
KJAS 261915Z AUTO 33007KT 10SM 30/23 A3009 RMK AO2 T03010228
KJAS 261855Z AUTO 09005KT 10SM BKN034 BKN041 BKN060 31/23 A3009 RMK AO2 T03070227
KJAS 261835Z AUTO 10005KT 10SM SCT032 SCT048 SCT060 31/23 A3010 RMK AO2 T03080232
KJAS 261815Z AUTO 11004KT 7SM SCT032 BKN048 30/23 A3011 RMK AO2 T03030228
KJAS 261755Z AUTO 08004KT 10SM SCT030 SCT038 30/23 A3012 RMK AO2 T03040229
KJAS 261735Z AUTO 09005KT 10SM SCT030 SCT110 30/23 A3012 RMK AO2 T03000227
KJAS 261715Z AUTO 05004KT 10SM 30/23 A3013 RMK AO2 T02960225
KJAS 261655Z AUTO 08003KT 10SM 30/22 A3014 RMK AO2 T02950224
KJAS 261635Z AUTO 00000KT 10SM 29/22 A3014 RMK AO2 T02920222
KJAS 261615Z AUTO 08003KT 10SM 29/22 A3014 RMK AO2 T02880220
KJAS 261555Z AUTO 05004KT 10SM CLR 28/22 A3014 RMK AO2 T02830216
KJAS 261530Z AUTO 08005KT 10SM CLR 28/22 A3015 RMK AO2 T02780217
KJAS 261515Z AUTO 04005KT 10SM 27/21 A3015 RMK AO2 T02740214
KJAS 261455Z AUTO 06003KT 10SM 27/21 A3015 RMK AO2 T02680211
KJAS 261435Z AUTO 08004KT 10SM 26/21 A3016 RMK AO2 T02620210
KJAS 261415Z AUTO 10004KT 10SM 26/21 A3016 RMK AO2 T02550208
KJAS 261355Z AUTO 05003KT 10SM 25/21 A3015 RMK AO2 T02480206
KJAS 261335Z AUTO 06003KT 10SM 24/21 A3016 RMK AO2 T02400206
KJAS 261315Z AUTO 00000KT 10SM 23/20 A3016 RMK AO2 T02340204
KJAS 261255Z AUTO 05003KT 10SM 23/20 A3015 RMK AO2 T02290203
KJAS 261235Z AUTO 07003KT 10SM 23/20 A3015 RMK AO2 T02250202
KJAS 261215Z AUTO 00000KT 10SM 22/20 A3015 RMK AO2 T02210201
KJAS 261155Z AUTO 05005KT 10SM 22/20 A3015 RMK AO2 T02190201
KJAS 261135Z AUTO 06003KT 10SM 22/20 A3015 RMK AO2 T02180200
KJAS 261115Z AUTO 05004KT 10SM 22/20 A3014 RMK AO2 T02190201
KJAS 261055Z AUTO 07004KT 10SM 22/20 A3014 RMK AO2 T02200200
KJAS 261035Z AUTO 06003KT 10SM 22/20 A3014 RMK AO2 T02210201
KJAS 261015Z AUTO 07003KT 10SM 22/20 A3014 RMK AO2 T02230201
KJAS 260955Z AUTO 00000KT 10SM 22/20 A3014 RMK AO2 T02230200
KJAS 260935Z AUTO 00000KT 10SM 23/20 A3014 RMK AO2 T02250200
KJAS 260915Z AUTO 05003KT 10SM 23/20 A3015 RMK AO2 T02250200
KJAS 260855Z AUTO 00000KT 10SM 23/20 A3015 RMK AO2 T02260199
KJAS 260835Z AUTO 06003KT 10SM 23/20 A3014 RMK AO2 T02280198
KJAS 260815Z AUTO 06003KT 10SM 23/20 A3015 RMK AO2 T02310198
KJAS 260755Z AUTO 05004KT 10SM 23/20 A3015 RMK AO2 T02320199
KJAS 260735Z AUTO 00000KT 10SM 23/20 A3015 RMK AO2 T02330199
KJAS 260715Z AUTO 03003KT 10SM 24/20 A3015 RMK AO2 T02350200
KJAS 260655Z AUTO 06003KT 10SM 24/20 A3016 RMK AO2 T02350203
KJAS 260635Z AUTO 09003KT 10SM 24/21 A3017 RMK AO2 T02350205
KJAS 260615Z AUTO 08003KT 10SM 24/21 A3017 RMK AO2 T02360205
KJAS 260555Z AUTO 08003KT 10SM 24/21 A3017 RMK AO2 T02370206
KJAS 260535Z AUTO 00000KT 10SM 24/21 A3017 RMK AO2 T02380208
KJAS 260515Z AUTO 06004KT 10SM 24/21 A3016 RMK AO2 T02390210
KJAS 260455Z AUTO 08003KT 10SM 24/21 A3017 RMK AO2 T02410212
KJAS 260435Z AUTO 07004KT 10SM 24/21 A3017 RMK AO2 T02440214
KJAS 260415Z AUTO 08003KT 10SM 25/22 A3017 RMK AO2 T02460215
KJAS 260355Z AUTO 05003KT 10SM 25/22 A3017 RMK AO2 T02480218
KJAS 260335Z AUTO 05003KT 10SM 25/22 A3017 RMK AO2 T02500220
KJAS 260315Z AUTO 00000KT 10SM 25/22 A3017 RMK AO2 T02510221
KJAS 260255Z AUTO 05005KT 10SM 25/22 A3016 RMK AO2 T02540221
KJAS 260235Z AUTO 06005KT 10SM 26/22 A3015 RMK AO2 T02550224
KJAS 260215Z AUTO 05005KT 10SM 26/23 A3015 RMK AO2 T02590227
KJAS 260155Z AUTO 05003KT 10SM 26/23 A3016 RMK AO2 T02620230
KJAS 260135Z AUTO 03003KT 10SM 27/23 A3015 RMK AO2 T02660231
KJAS 260115Z AUTO 05005KT 10SM 27/23 A3014 RMK AO2 T02720231
KJAS 260055Z AUTO 04005KT 10SM 28/23 A3013 RMK AO2 T02770232
KJAS 260035Z AUTO 04003KT 10SM 28/24 A3013 RMK AO2 T02800235
KJAS 260015Z AUTO 04003KT 10SM 28/24 A3013 RMK AO2 T02800235
KJAS 252355Z AUTO 03004KT 10SM SCT027 SCT033 SCT046 28/24 A3012 RMK AO2 T02840235
KJAS 252335Z AUTO 05007KT 10SM SCT025 SCT034 BKN042 29/24 A3012 RMK AO2 T02920236
KJAS 252315Z AUTO 07006KT 10SM 30/24 A3012 RMK AO2 T02970237
KJAS 252255Z AUTO 03004KT 10SM 29/24 A3012 RMK AO2 T02920236
KJAS 252235Z AUTO 05003KT 10SM 29/23 A3012 RMK AO2 T02920233
KJAS 252215Z AUTO 05005KT 10SM 29/23 A3013 RMK AO2 T02890234
KJAS 252155Z AUTO 03006KT 10SM 29/24 A3013 RMK AO2 T02910235
KJAS 252135Z AUTO 02005KT 10SM 29/24 A3012 RMK AO2 T02940236
KJAS 252115Z AUTO 04005KT 10SM 29/24 A3013 RMK AO2 T02910235
KJAS 252055Z AUTO 04006KT 10SM 29/24 A3014 RMK AO2 T02900235


Page loaded:  08:45 UTC  |   01:45 AM Pacific  |   02:45 AM Mountain  |   03:45 AM Central  |   04:45 AM Eastern

 

ADVISORIES

FORECASTS

FORECASTS

OBSERVATIONS

USER TOOLS

ABOUT US